Latest Coastal Weather Observations for Dennes Point

IDT60701

Issued at 2:03 pm EDT Tuesday 28 February 2017 (issued every 10 minutes, with the page automatically refreshed every 10 minutes)

About coastal observations | Map of coastal stations | Coastal observations for TAS | Marine services | Other Formats
Station Details ID: 094255 Name: DENNES POINT Lat: -43.06 Lon: 147.36 Height: 5.67 m
Data from the previous 72 hours. | See also: Recent months at Dennes Point
Date/Time
EDT
Temp
°C
Wind Pressure Rain since
9am
mm
Weather Cloud Vis
km
Sea
Height
m
Swell
Dir  Spd
kts
Gust
kts
hPa Trend Height
m
Period
s
Dir
28/02:00pm 23.6 ESE 7 8 1021.8 - 0.0 - - - - - - -
28/01:30pm 23.6 E 5 7 1021.9 - 0.0 - - - - - - -
28/01:00pm 22.8 ENE 3 4 1022.3 - 0.0 - - - - - - -
28/12:30pm 22.4 NNE 3 3 1022.5 - 0.0 - - - - - - -
28/12:00pm 21.8 N 5 5 1022.7 - 0.0 - - - - - - -
28/11:30am 21.7 NNE 3 4 1022.8 - 0.0 - - - - - - -
28/11:00am 21.2 NE 3 4 1022.9 - 0.0 - - - - - - -
28/10:30am 20.3 ENE 3 4 1022.9 - 0.0 - - - - - - -
28/10:00am 19.4 ENE 2 3 1022.9 - 0.0 - - - - - - -
28/09:30am 18.6 NE 1 1 1022.9 - 0.0 - - - - - - -
28/09:00am 17.0 CALM 0 0 1023.0 - 0.0 - - - - - - -
28/08:30am 16.4 CALM 0 0 1023.0 - 0.0 - - - - - - -
28/08:00am 15.2 SW 1 2 1023.0 - 0.0 - - - - - - -
28/07:30am 13.5 SSW 4 5 1022.9 - 0.0 - - - - - - -
28/07:00am 13.4 SSW 4 4 1022.7 - 0.0 - - - - - - -
28/06:30am 14.0 SW 1 3 1022.5 - 0.0 - - - - - - -
28/06:00am 13.4 SW 4 5 1022.4 - 0.0 - - - - - - -
28/05:30am 13.5 SSW 3 3 1022.3 - 0.0 - - - - - - -
28/05:00am 13.4 SSW 4 5 1022.4 - 0.0 - - - - - - -
28/04:30am 14.2 SSW 3 4 1022.4 - 0.0 - - - - - - -
28/04:00am 14.3 SSW 6 7 1022.6 - 0.0 - - - - - - -
28/03:30am 14.2 SSW 6 7 1022.8 - 0.0 - - - - - - -
28/03:00am 14.3 SSW 5 6 1023.0 - 0.0 - - - - - - -
28/02:30am 14.3 SSW 6 7 1023.2 - 0.0 - - - - - - -
28/02:00am 14.6 SSW 5 5 1023.2 - 0.0 - - - - - - -
28/01:30am 14.7 SSW 4 5 1023.3 - 0.0 - - - - - - -
28/01:00am 15.0 SSW 6 7 1023.2 - 0.0 - - - - - - -
28/12:30am 15.2 SSW 5 6 1023.2 - 0.0 - - - - - - -
28/12:00am 15.3 SW 5 6 1023.2 - 0.0 - - - - - - -
 
Date/Time
EDT
Temp
°C
Wind Pressure Rain since
9am
mm
Weather Cloud Vis
km
Sea
Height
m
Swell
Dir  Spd
kts
Gust
kts
hPa Trend Height
m
Period
s
Dir
27/11:30pm 15.7 SW 3 4 1023.2 - 0.0 - - - - - - -
27/11:00pm 15.9 SW 2 3 1023.3 - 0.0 - - - - - - -
27/10:30pm 17.6 ENE 4 5 1023.3 - 0.0 - - - - - - -
27/10:00pm 17.8 NNE 2 4 1023.4 - 0.0 - - - - - - -
27/09:30pm 17.5 N 1 3 1023.3 - 0.0 - - - - - - -
27/09:00pm 18.0 E 2 4 1023.2 - 0.0 - - - - - - -
27/08:30pm 18.4 ENE 3 6 1022.9 - 0.0 - - - - - - -
27/08:00pm 18.7 ENE 3 6 1022.8 - 0.0 - - - - - - -
27/07:30pm 19.3 E 9 12 1022.5 - 0.0 - - - - - - -
27/07:00pm 19.7 ENE 13 16 1022.2 - 0.0 - - - - - - -
27/06:30pm 20.4 ENE 14 17 1022.1 - 0.0 - - - - - - -
27/06:00pm 20.7 ENE 14 17 1022.1 - 0.0 - - - - - - -
27/05:30pm 21.1 E 14 17 1022.1 - 0.0 - - - - - - -
27/05:00pm 21.4 ENE 16 19 1022.4 - 0.0 - - - - - - -
27/04:30pm 21.7 ENE 15 18 1022.7 - 0.0 - - - - - - -
27/04:00pm 22.5 ENE 13 16 1022.9 - 0.0 - - - - - - -
27/03:30pm 22.3 ENE 16 18 1023.0 - 0.0 - - - - - - -
27/03:00pm 22.5 ENE 15 17 1023.3 - 0.0 - - - - - - -
27/02:30pm 21.8 E 15 18 1023.7 - 0.0 - - - - - - -
27/02:00pm 21.4 E 14 16 1024.0 - 0.0 - - - - - - -
27/01:30pm 21.6 ENE 13 16 1024.4 - 0.0 - - - - - - -
27/01:00pm 22.1 E 9 11 1024.7 - 0.0 - - - - - - -
27/12:30pm 22.1 NE 4 4 1025.0 - 0.0 - - - - - - -
27/12:00pm 21.6 NNE 7 8 1025.4 - 0.0 - - - - - - -
27/11:30am 20.9 NE 6 7 1025.7 - 0.0 - - - - - - -
27/11:00am 19.4 NNE 4 5 1026.0 - 0.0 - - - - - - -
27/10:30am 18.4 NNE 5 6 1026.2 - 0.0 - - - - - - -
27/10:00am 17.0 NNE 6 8 1026.2 - 0.0 - - - - - - -
27/09:30am 15.8 NNE 7 8 1026.2 - 0.0 - - - - - - -
27/09:00am 15.4 NE 9 10 1026.3 - 0.0 - - - - - - -
27/08:30am 14.9 NNE 8 9 1026.4 - 0.0 - - - - - - -
27/08:00am 14.7 N 10 11 1026.2 - 0.0 - - - - - - -
27/07:30am 14.1 NNE 4 9 1026.2 - 0.0 - - - - - - -
27/07:00am 12.2 NE 1 3 1026.0 - 0.0 - - - - - - -
27/06:30am 12.6 NE 1 2 1025.7 - 0.0 - - - - - - -
27/06:00am 12.0 SSW 4 5 1025.6 - 0.0 - - - - - - -
27/05:30am 12.8 CALM 0 0 1025.3 - 0.0 - - - - - - -
27/05:00am 13.0 CALM 0 1 1025.2 - 0.0 - - - - - - -
27/04:30am 11.9 SSW 2 3 1025.2 - 0.0 - - - - - - -
27/04:00am 12.4 S 6 8 1025.3 - 0.0 - - - - - - -
27/03:30am 12.6 SSW 6 7 1025.3 - 0.0 - - - - - - -
27/03:00am 12.5 SSW 5 7 1025.4 - 0.0 - - - - - - -
27/02:30am 12.6 SSW 7 8 1025.3 - 0.0 - - - - - - -
27/02:00am 12.8 SSW 6 8 1025.4 - 0.0 - - - - - - -
27/01:30am 12.8 SSW 7 8 1025.5 - 0.0 - - - - - - -
27/01:00am 13.3 S 7 8 1025.4 - 0.0 - - - - - - -
27/12:30am 13.8 S 6 7 1025.6 - 0.0 - - - - - - -
27/12:00am 14.0 S 5 6 1025.8 - 0.0 - - - - - - -
 
Date/Time
EDT
Temp
°C
Wind Pressure Rain since
9am
mm
Weather Cloud Vis
km
Sea
Height
m
Swell
Dir  Spd
kts
Gust
kts
hPa Trend Height
m
Period
s
Dir
26/11:30pm 14.1 SSW 4 5 1026.0 - 0.0 - - - - - - -
26/11:00pm 14.4 SSW 5 6 1026.2 - 0.0 - - - - - - -
26/10:30pm 14.7 SW 5 7 1026.2 - 0.0 - - - - - - -
26/10:00pm 14.8 SW 4 6 1026.2 - 0.0 - - - - - - -
26/09:30pm 14.7 SW 3 4 1026.1 - 0.0 - - - - - - -
26/09:00pm 14.9 SW 3 4 1025.8 - 0.0 - - - - - - -
26/08:30pm 15.9 SW 1 3 1025.5 - 0.0 - - - - - - -
26/08:00pm 16.8 SW 7 9 1025.4 - 0.0 - - - - - - -
26/07:30pm 17.9 SSE 3 4 1025.2 - 0.0 - - - - - - -
26/07:00pm 19.2 SSE 5 8 1025.0 - 0.0 - - - - - - -
26/06:30pm 19.8 SSE 4 5 1024.8 - 0.0 - - - - - - -
26/06:00pm 19.4 ESE 6 7 1024.5 - 0.0 - - - - - - -
26/05:30pm 19.5 SE 5 7 1024.3 - 0.0 - - - - - - -
26/05:00pm 18.7 SE 6 9 1024.4 - 0.0 - - - - - - -
26/04:30pm 19.5 ESE 9 12 1024.3 - 0.0 - - - - - - -
26/04:00pm 18.9 ESE 12 15 1024.3 - 0.0 - - - - - - -
26/03:30pm 19.2 ESE 12 15 1024.3 - 0.0 - - - - - - -
26/03:00pm 20.2 ESE 11 13 1024.5 - 0.0 - - - - - - -
26/02:30pm 21.0 ESE 9 13 1024.5 - 0.0 - - - - - - -
26/02:00pm 20.0 ESE 8 11 1024.9 - 0.0 - - - - - - -
26/01:30pm 19.8 ESE 9 10 1025.0 - 0.0 - - - - - - -
26/01:00pm 19.1 ESE 8 10 1025.2 - 0.0 - - - - - - -
26/12:30pm 18.1 ESE 7 9 1025.5 - 0.0 - - - - - - -
26/12:00pm 18.1 E 5 7 1025.6 - 0.0 - - - - - - -
26/11:30am 17.7 E 4 5 1025.8 - 0.0 - - - - - - -
26/11:00am 16.8 ENE 3 4 1026.0 - 0.0 - - - - - - -
26/10:30am 16.3 NE 4 4 1026.2 - 0.0 - - - - - - -
26/10:00am 15.6 NE 3 4 1026.3 - 0.0 - - - - - - -
26/09:30am 14.7 NE 3 3 1026.3 - 0.0 - - - - - - -
26/09:00am 13.8 CALM 0 0 1026.1 - 0.0 - - - - - - -
26/08:30am 12.7 SSW 1 3 1026.0 - 0.0 - - - - - - -
26/08:00am 11.9 SW 3 4 1025.8 - 0.0 - - - - - - -
26/07:30am 10.7 SW 4 5 1025.7 - 0.0 - - - - - - -
26/07:00am 10.1 SSW 5 6 1025.4 - 0.0 - - - - - - -
26/06:30am 9.6 SSW 6 7 1025.1 - 0.0 - - - - - - -
26/06:00am 9.3 SSW 5 6 1024.8 - 0.0 - - - - - - -
26/05:30am 9.9 SSW 4 5 1024.7 - 0.0 - - - - - - -
26/05:00am 9.7 SW 6 7 1024.8 - 0.0 - - - - - - -
26/04:30am 10.1 WSW 2 3 1024.3 - 0.0 - - - - - - -
26/04:00am 9.9 SSW 6 7 1024.9 - 0.0 - - - - - - -
26/03:30am 10.4 S 7 9 1025.2 - 0.0 - - - - - - -
26/03:00am 9.8 SSW 4 5 1025.1 - 0.0 - - - - - - -
26/02:30am 10.4 S 6 8 1026.2 - 0.0 - - - - - - -
26/02:00am 10.9 S 6 7 1025.9 - 0.0 - - - - - - -
26/01:30am 10.9 S 5 6 1026.2 - 0.0 - - - - - - -
26/01:00am 11.2 SSW 4 4 1026.4 - 0.0 - - - - - - -
26/12:30am 11.2 SSW 4 5 1026.7 - 0.0 - - - - - - -
26/12:00am 11.4 SSW 4 4 1026.9 - 0.0 - - - - - - -
 
Date/Time
EDT
Temp
°C
Wind Pressure Rain since
9am
mm
Weather Cloud Vis
km
Sea
Height
m
Swell
Dir  Spd
kts
Gust
kts
hPa Trend Height
m
Period
s
Dir
25/11:30pm 11.8 SSW 3 4 1026.9 - 0.0 - - - - - - -
25/11:00pm 12.7 CALM 0 0 1027.0 - 0.0 - - - - - - -
25/10:30pm 13.4 CALM 0 2 1027.5 - 0.0 - - - - - - -
25/10:00pm 13.8 SSE 3 4 1027.7 - 0.0 - - - - - - -
25/09:30pm 14.0 SSE 4 5 1027.6 - 0.0 - - - - - - -
25/09:00pm 13.8 SE 4 6 1027.3 - 0.0 - - - - - - -
25/08:30pm 13.3 SE 4 6 1026.8 - 0.0 - - - - - - -
25/08:00pm 13.9 SE 5 8 1026.4 - 0.0 - - - - - - -
25/07:30pm 14.3 ESE 7 9 1026.1 - 0.0 - - - - - - -
25/07:00pm 15.0 ESE 8 11 1026.0 - 0.0 - - - - - - -
25/06:30pm 15.4 ESE 8 12 1026.0 - 0.0 - - - - - - -
25/06:00pm 15.8 ESE 9 13 1025.6 - 0.0 - - - - - - -
25/05:30pm 16.4 ESE 10 15 1025.5 - 0.0 - - - - - - -
25/05:00pm 16.6 ESE 10 13 1025.7 - 0.0 - - - - - - -
25/04:30pm 16.8 ESE 10 12 1026.0 - 0.0 - - - - - - -
25/04:00pm 17.0 ESE 10 14 1026.0 - 0.0 - - - - - - -
25/03:30pm 17.1 ESE 10 13 1026.2 - 0.0 - - - - - - -
25/03:00pm 17.1 E 10 13 1026.2 - 0.0 - - - - - - -
25/02:30pm 17.1 E 10 13 1026.6 - 0.0 - - - - - - -

Other Formats:

Comma delimited format used in spreadsheet applications
http://www.bom.gov.au/fwo/IDT60701/IDT60701.94988.axf

JavaScript Object Notation format (JSON) in row-major order
http://www.bom.gov.au/fwo/IDT60701/IDT60701.94988.json